Time,TemperatureF,DewpointF,PressureIn,WindDirection,WindDirectionDegrees,WindSpeedMPH,WindSpeedGustMPH,Humidity,HourlyPrecipIn,Conditions,Clouds,dailyrainin,SoftwareType,DateUTC
2013-07-26 00:05:00,80.0,72.0,29.92,East,86,2.0,5.0,77,0.00,,,0.00,weatherlink.com 1.10,2013-07-26 06:05:00,
2013-07-26 00:20:00,79.8,72.0,29.92,East,98,2.0,3.0,77,0.00,,,0.00,weatherlink.com 1.10,2013-07-26 06:20:00,
2013-07-26 00:35:00,79.6,72.0,29.91,ESE,117,0.0,3.0,77,0.00,,,0.00,weatherlink.com 1.10,2013-07-26 06:35:00,
2013-07-26 00:50:00,79.2,72.0,29.91,East,101,2.0,3.0,78,0.00,,,0.00,weatherlink.com 1.10,2013-07-26 06:50:00,
2013-07-26 01:05:00,79.4,72.0,29.91,ESE,103,4.0,5.0,78,0.00,,,0.00,weatherlink.com 1.10,2013-07-26 07:05:00,
2013-07-26 01:20:00,79.4,72.0,29.90,ESE,105,0.0,4.0,78,0.00,,,0.00,weatherlink.com 1.10,2013-07-26 07:20:00,
2013-07-26 01:35:00,79.4,72.0,29.90,ESE,108,0.0,5.0,78,0.00,,,0.00,weatherlink.com 1.10,2013-07-26 07:35:00,
2013-07-26 01:50:00,79.7,72.0,29.90,ESE,116,2.0,6.0,77,0.00,,,0.00,weatherlink.com 1.10,2013-07-26 07:50:00,
2013-07-26 02:05:00,79.7,72.0,29.89,ESE,120,1.0,5.0,77,0.00,,,0.00,weatherlink.com 1.10,2013-07-26 08:05:00,
2013-07-26 02:20:00,80.0,72.0,29.89,ENE,72,2.0,6.0,77,0.00,,,0.00,weatherlink.com 1.10,2013-07-26 08:20:00,
2013-07-26 02:35:00,80.0,72.0,29.89,East,96,4.0,6.0,77,0.00,,,0.00,weatherlink.com 1.10,2013-07-26 08:35:00,
2013-07-26 02:50:00,79.8,72.0,29.89,ESE,115,2.0,4.0,78,0.00,,,0.00,weatherlink.com 1.10,2013-07-26 08:50:00,
2013-07-26 03:05:00,79.6,73.0,29.88,ESE,104,2.0,6.0,79,0.00,,,0.00,weatherlink.com 1.10,2013-07-26 09:05:00,
2013-07-26 03:20:00,79.5,73.0,29.89,ESE,117,3.0,5.0,79,0.00,,,0.00,weatherlink.com 1.10,2013-07-26 09:20:00,
2013-07-26 03:35:00,79.4,72.0,29.88,ESE,117,0.0,4.0,79,0.00,,,0.00,weatherlink.com 1.10,2013-07-26 09:35:00,
2013-07-26 03:50:00,79.2,73.0,29.88,SE,124,1.0,6.0,80,0.00,,,0.00,weatherlink.com 1.10,2013-07-26 09:50:00,
2013-07-26 04:05:00,79.0,72.0,29.89,SSE,156,0.0,3.0,80,0.00,,,0.00,weatherlink.com 1.10,2013-07-26 10:05:00,
2013-07-26 04:20:00,79.4,72.0,29.89,SE,131,0.0,3.0,79,0.00,,,0.00,weatherlink.com 1.10,2013-07-26 10:20:00,
2013-07-26 04:35:00,79.5,73.0,29.90,East,98,1.0,4.0,79,0.00,,,0.00,weatherlink.com 1.10,2013-07-26 10:35:00,
2013-07-26 04:50:00,79.6,73.0,29.90,East,101,0.0,4.0,79,0.00,,,0.00,weatherlink.com 1.10,2013-07-26 10:50:00,
2013-07-26 05:05:00,79.6,73.0,29.90,ESE,108,2.0,3.0,79,0.00,,,0.00,weatherlink.com 1.10,2013-07-26 11:05:00,
2013-07-26 05:20:00,79.6,73.0,29.89,SE,129,0.0,3.0,79,0.00,,,0.00,weatherlink.com 1.10,2013-07-26 11:20:00,
2013-07-26 05:35:00,79.5,73.0,29.90,SSE,149,0.0,5.0,79,0.00,,,0.00,weatherlink.com 1.10,2013-07-26 11:35:00,
2013-07-26 05:50:00,79.3,72.0,29.91,WSW,257,0.0,5.0,79,0.00,,,0.00,weatherlink.com 1.10,2013-07-26 11:50:00,
2013-07-26 06:05:00,79.4,72.0,29.92,SE,129,0.0,6.0,79,0.00,,,0.00,weatherlink.com 1.10,2013-07-26 12:05:00,
2013-07-26 06:20:00,79.4,72.0,29.92,ESE,122,0.0,5.0,79,0.00,,,0.00,weatherlink.com 1.10,2013-07-26 12:20:00,
2013-07-26 06:35:00,79.3,72.0,29.92,ESE,118,1.0,2.0,79,0.00,,,0.00,weatherlink.com 1.10,2013-07-26 12:35:00,
2013-07-26 06:50:00,79.4,72.0,29.92,South,177,0.0,2.0,79,0.00,,,0.00,weatherlink.com 1.10,2013-07-26 12:50:00,
2013-07-26 07:05:00,79.4,72.0,29.92,SE,140,0.0,4.0,79,0.00,,,0.00,weatherlink.com 1.10,2013-07-26 13:05:00,
2013-07-26 07:20:00,79.6,73.0,29.92,ESE,119,1.0,2.0,79,0.00,,,0.00,weatherlink.com 1.10,2013-07-26 13:20:00,
2013-07-26 07:35:00,79.9,73.0,29.92,ESE,105,1.0,4.0,78,0.00,,,0.00,weatherlink.com 1.10,2013-07-26 13:35:00,
2013-07-26 07:50:00,80.2,72.0,29.92,South,176,0.0,3.0,77,0.00,,,0.00,weatherlink.com 1.10,2013-07-26 13:50:00,
2013-07-26 08:05:00,80.4,73.0,29.94,SSW,199,1.0,3.0,77,0.00,,,0.00,weatherlink.com 1.10,2013-07-26 14:05:00,
2013-07-26 08:20:00,80.6,72.0,29.94,SSW,198,0.0,5.0,76,0.00,,,0.00,weatherlink.com 1.10,2013-07-26 14:20:00,
2013-07-26 08:36:00,80.7,72.0,29.94,SW,233,4.0,4.0,75,0.00,,,0.00,weatherlink.com 1.10,2013-07-26 14:36:00,
2013-07-26 08:50:00,80.8,73.0,29.94,WSW,242,2.0,3.0,76,0.00,,,0.00,weatherlink.com 1.10,2013-07-26 14:50:00,
2013-07-26 09:05:00,80.5,72.0,29.95,SW,228,2.0,6.0,76,0.00,,,0.00,weatherlink.com 1.10,2013-07-26 15:05:00,
2013-07-26 09:20:00,80.1,73.0,29.95,SSW,211,0.0,4.0,78,0.00,,,0.00,weatherlink.com 1.10,2013-07-26 15:20:00,
2013-07-26 09:35:00,79.9,73.0,29.95,SW,225,0.0,0.0,80,0.00,,,0.00,weatherlink.com 1.10,2013-07-26 15:35:00,
2013-07-26 09:50:00,80.0,74.0,29.94,SW,217,0.0,1.0,82,0.00,,,0.00,weatherlink.com 1.10,2013-07-26 15:50:00,
2013-07-26 10:05:00,80.0,75.0,29.93,ESE,122,0.0,0.0,84,0.00,,,0.00,weatherlink.com 1.10,2013-07-26 16:05:00,
2013-07-26 10:20:00,80.9,75.0,29.93,SW,215,0.0,2.0,82,0.00,,,0.00,weatherlink.com 1.10,2013-07-26 16:20:00,
2013-07-26 10:35:00,81.1,75.0,29.92,ESE,110,0.0,4.0,81,0.01,,,0.01,weatherlink.com 1.10,2013-07-26 16:35:00,
2013-07-26 10:50:00,80.7,75.0,29.91,SE,126,0.0,4.0,82,0.01,,,0.01,weatherlink.com 1.10,2013-07-26 16:50:00,
2013-07-26 11:05:00,82.2,75.0,29.91,SSW,207,0.0,4.0,79,0.01,,,0.01,weatherlink.com 1.10,2013-07-26 17:05:00,
2013-07-26 11:20:00,84.7,76.0,29.90,ESE,121,3.0,5.0,74,0.01,,,0.01,weatherlink.com 1.10,2013-07-26 17:20:00,
2013-07-26 11:36:00,86.0,75.0,29.89,South,181,1.0,6.0,70,0.00,,,0.01,weatherlink.com 1.10,2013-07-26 17:36:00,
2013-07-26 11:51:00,88.6,75.0,29.89,SSW,203,1.0,6.0,64,0.00,,,0.01,weatherlink.com 1.10,2013-07-26 17:51:00,
2013-07-26 12:06:00,91.1,74.0,29.88,ESE,112,9.0,9.0,58,0.00,,,0.01,weatherlink.com 1.10,2013-07-26 18:06:00,
2013-07-26 12:21:00,92.4,74.0,29.87,SE,143,2.0,8.0,55,0.00,,,0.01,weatherlink.com 1.10,2013-07-26 18:21:00,
2013-07-26 12:36:00,92.8,74.0,29.86,SE,142,2.0,11.0,54,0.00,,,0.01,weatherlink.com 1.10,2013-07-26 18:36:00,
2013-07-26 12:51:00,93.7,75.0,29.86,SSE,166,2.0,6.0,54,0.00,,,0.01,weatherlink.com 1.10,2013-07-26 18:51:00,
2013-07-26 13:06:00,92.3,73.0,29.86,SSW,205,7.0,10.0,54,0.00,,,0.01,weatherlink.com 1.10,2013-07-26 19:06:00,
2013-07-26 13:21:00,93.1,74.0,29.85,WSW,245,0.0,11.0,54,0.00,,,0.01,weatherlink.com 1.10,2013-07-26 19:21:00,
2013-07-26 13:51:00,93.2,74.0,29.84,SE,136,0.0,8.0,54,0.00,,,0.01,weatherlink.com 1.10,2013-07-26 19:51:00,
2013-07-26 14:06:00,93.6,74.0,29.83,SE,146,2.0,6.0,53,0.00,,,0.01,weatherlink.com 1.10,2013-07-26 20:06:00,
2013-07-26 14:21:00,94.0,75.0,29.82,SW,221,1.0,8.0,54,0.00,,,0.01,weatherlink.com 1.10,2013-07-26 20:21:00,
2013-07-26 14:36:00,95.8,75.0,29.81,SSE,147,4.0,10.0,51,0.00,,,0.01,weatherlink.com 1.10,2013-07-26 20:36:00,
2013-07-26 14:51:00,96.5,74.0,29.80,South,176,2.0,9.0,49,0.00,,,0.01,weatherlink.com 1.10,2013-07-26 20:51:00,
2013-07-26 15:06:00,96.9,75.0,29.80,WSW,245,3.0,9.0,49,0.00,,,0.01,weatherlink.com 1.10,2013-07-26 21:06:00,
2013-07-26 15:21:00,96.8,74.0,29.80,SW,222,7.0,8.0,48,0.00,,,0.01,weatherlink.com 1.10,2013-07-26 21:21:00,
2013-07-26 15:36:00,95.4,73.0,29.80,SW,228,8.0,12.0,48,0.00,,,0.01,weatherlink.com 1.10,2013-07-26 21:36:00,
2013-07-26 15:51:00,96.3,74.0,29.79,South,184,4.0,10.0,48,0.00,,,0.01,weatherlink.com 1.10,2013-07-26 21:51:00,
2013-07-26 16:21:00,94.0,73.0,29.77,SW,219,3.0,15.0,51,0.00,,,0.01,weatherlink.com 1.10,2013-07-26 22:21:00,
2013-07-26 16:52:00,92.7,73.0,29.77,SW,218,6.0,10.0,53,0.00,,,0.01,weatherlink.com 1.10,2013-07-26 22:52:00,
2013-07-26 17:07:00,93.4,73.0,29.77,South,173,0.0,7.0,52,0.00,,,0.01,weatherlink.com 1.10,2013-07-26 23:07:00,
2013-07-26 17:21:00,93.0,73.0,29.77,SW,219,1.0,8.0,52,0.00,,,0.01,weatherlink.com 1.10,2013-07-26 23:21:00,
2013-07-26 17:36:00,92.3,73.0,29.79,SW,216,17.0,20.0,53,0.00,,,0.01,weatherlink.com 1.10,2013-07-26 23:36:00,
2013-07-26 17:52:00,80.8,73.0,29.80,SE,124,2.0,10.0,76,0.03,,,0.04,weatherlink.com 1.10,2013-07-26 23:52:00,
2013-07-26 18:07:00,78.0,72.0,29.78,SSW,211,0.0,6.0,81,0.03,,,0.04,weatherlink.com 1.10,2013-07-27 00:07:00,
2013-07-26 18:22:00,78.8,73.0,29.77,SW,218,0.0,3.0,81,0.03,,,0.04,weatherlink.com 1.10,2013-07-27 00:22:00,
2013-07-26 18:37:00,78.6,73.0,29.78,SSE,150,1.0,3.0,82,0.03,,,0.04,weatherlink.com 1.10,2013-07-27 00:37:00,
2013-07-26 18:52:00,78.2,73.0,29.81,NW,321,3.0,8.0,85,0.00,,,0.04,weatherlink.com 1.10,2013-07-27 00:52:00,
2013-07-26 19:07:00,78.8,75.0,29.82,NW,326,1.0,10.0,87,0.05,,,0.09,weatherlink.com 1.10,2013-07-27 01:07:00,
2013-07-26 19:22:00,78.5,75.0,29.81,ESE,109,1.0,2.0,89,0.05,,,0.09,weatherlink.com 1.10,2013-07-27 01:22:00,
2013-07-26 19:37:00,79.2,75.0,29.82,ENE,64,0.0,1.0,88,0.05,,,0.09,weatherlink.com 1.10,2013-07-27 01:37:00,
2013-07-26 19:52:00,78.7,75.0,29.82,NNW,333,0.0,0.0,89,0.05,,,0.09,weatherlink.com 1.10,2013-07-27 01:52:00,
2013-07-26 20:07:00,78.9,76.0,29.82,West,281,0.0,1.0,90,0.00,,,0.09,weatherlink.com 1.10,2013-07-27 02:07:00,
2013-07-26 20:22:00,78.8,76.0,29.83,West,281,0.0,0.0,91,0.00,,,0.09,weatherlink.com 1.10,2013-07-27 02:22:00,
2013-07-26 20:37:00,78.4,76.0,29.84,West,281,0.0,1.0,92,0.00,,,0.09,weatherlink.com 1.10,2013-07-27 02:37:00,
2013-07-26 20:52:00,78.7,76.0,29.84,NW,312,0.0,5.0,91,0.00,,,0.09,weatherlink.com 1.10,2013-07-27 02:52:00,
2013-07-26 21:07:00,79.2,76.0,29.85,West,270,3.0,6.0,89,0.00,,,0.09,weatherlink.com 1.10,2013-07-27 03:07:00,
2013-07-26 21:22:00,78.7,75.0,29.85,NW,321,4.0,5.0,89,0.00,,,0.09,weatherlink.com 1.10,2013-07-27 03:22:00,
2013-07-26 21:37:00,78.1,75.0,29.86,SSW,201,0.0,7.0,90,0.00,,,0.09,weatherlink.com 1.10,2013-07-27 03:37:00,
2013-07-26 21:52:00,77.6,75.0,29.86,North,4,1.0,5.0,91,0.00,,,0.09,weatherlink.com 1.10,2013-07-27 03:52:00,
2013-07-26 22:07:00,77.1,74.0,29.86,West,267,4.0,8.0,91,0.00,,,0.09,weatherlink.com 1.10,2013-07-27 04:07:00,
2013-07-26 22:22:00,76.7,74.0,29.86,NNW,345,2.0,11.0,92,0.00,,,0.09,weatherlink.com 1.10,2013-07-27 04:22:00,
2013-07-26 22:37:00,76.2,74.0,29.87,NW,309,1.0,10.0,92,0.00,,,0.09,weatherlink.com 1.10,2013-07-27 04:37:00,
2013-07-26 22:52:00,76.0,74.0,29.87,NNE,12,4.0,9.0,92,0.00,,,0.09,weatherlink.com 1.10,2013-07-27 04:52:00,
2013-07-26 23:07:00,76.0,74.0,29.88,NNW,335,7.0,11.0,92,0.00,,,0.00,weatherlink.com 1.10,2013-07-27 05:07:00,
2013-07-26 23:22:00,76.0,74.0,29.87,North,350,1.0,10.0,92,0.00,,,0.00,weatherlink.com 1.10,2013-07-27 05:22:00,
2013-07-26 23:37:00,75.8,74.0,29.87,West,281,1.0,9.0,93,0.00,,,0.00,weatherlink.com 1.10,2013-07-27 05:37:00,
2013-07-26 23:52:00,75.4,73.0,29.87,NNE,29,2.0,10.0,93,0.00,,,0.00,weatherlink.com 1.10,2013-07-27 05:52:00,